Terminal Aerodrome Forecast
Issued by NWS

Home | Current Version | Previous Version | Text Only | Print | Product List | Glossary On
Versions: 1 2 3 4 5 6 7 8 9 10 11 12 13 14 15 16 17 18 19 20 21 22
000
FTUS45 KLKN 270520
TAFEKO
TAF
KEKO 270520Z 2706/2806 03005KT P6SM SCT200
     FM271200 17008KT P6SM VCSH SCT050 BKN100
      TEMPO 2714/2718 6SM -RA SCT020 BKN030
     FM271800 22008KT P6SM VCSH SCT020 OVC035
      TEMPO 2722/2802 3SM -RA BR SCT010 BKN020=

USA.gov is the U.S. government's official web portal to all federal, state and local government web resources and services.